Rollins, Indiana
Current Conditions -  °F | °C
As of 8:35 PM on Tuesday 21 Oct 2014 (Local Time) from KDCY Reporting Station
Clear Clear  
Wind Chill: 45°   Ceiling: Unl
Heat Index: 47°   Visibility: 10mi
Dew Point: 41°   Wind: 5mph
Humidity: 79%   Direction: 20°NNE
Pressure: 30.17"   Gusts: NA
Location:  38.6262°N, 86.7615°W
Report Text: KDCY 220135Z AUTO 02004KT 10SM CLR 09/05 A3017 RMK AO2 T00850050
Loading
Personal Weather Stations






























Interactive Weather Map
Tropical Storm Tracking
New forecast layout! Learn more

10-Day Weather Forecast

Advertisements
Track Severe Weather on mobile